Time;durP1;ratioP1;P1;durP2;ratioP2;P2;SDS_P1;SDS_P2;PMS_P1;PMS_P2;Temp;Humidity;BMP_temperature;BMP_pressure;BME280_temperature;BME280_humidity;BME280_pressure;Samples;Min_cycle;Max_cycle;Signal;HPM_P1;HPM_P2
2023/12/06 00:01:42;;;;;;;16.63;2.65;;;26.30;99.90;;;;;;5035773;28;20191;-78
2023/12/06 00:04:13;;;;;;;10.40;3.13;;;26.30;99.90;;;;;;5035734;28;20194;-77
2023/12/06 00:06:44;;;;;;;20.23;3.28;;;26.30;99.90;;;;;;5035703;28;20195;-79
2023/12/06 00:09:17;;;;;;;9.25;1.95;;;26.30;99.90;;;;;;5035416;28;20221;-76
2023/12/06 00:11:48;;;;;;;11.30;2.28;;;26.30;99.90;;;;;;5035572;28;20213;-78
2023/12/06 00:14:18;;;;;;;13.90;2.50;;;26.10;99.90;;;;;;5035418;28;20194;-78
2023/12/06 00:16:49;;;;;;;17.83;2.72;;;26.00;99.90;;;;;;5035121;28;20195;-76
2023/12/06 00:19:20;;;;;;;13.63;2.50;;;26.00;99.90;;;;;;5035446;28;20190;-79
2023/12/06 00:21:51;;;;;;;12.40;2.45;;;25.80;99.90;;;;;;5035183;28;20217;-77
2023/12/06 00:24:23;;;;;;;16.42;3.30;;;25.80;99.90;;;;;;5035204;28;20238;-79
2023/12/06 00:26:54;;;;;;;11.55;2.45;;;25.90;99.90;;;;;;5035258;28;20186;-79
2023/12/06 00:29:25;;;;;;;15.02;2.55;;;25.90;99.90;;;;;;5035146;28;20229;-78
2023/12/06 00:31:55;;;;;;;11.82;2.50;;;26.10;99.90;;;;;;5035231;28;20557;-78
2023/12/06 00:34:26;;;;;;;11.73;2.70;;;26.20;99.90;;;;;;5035272;28;20213;-76
2023/12/06 00:36:57;;;;;;;13.73;2.60;;;26.30;99.90;;;;;;5034959;28;20198;-76
2023/12/06 00:39:30;;;;;;;13.18;2.10;;;26.10;99.90;;;;;;5035095;28;20225;-73
2023/12/06 00:42:01;;;;;;;15.90;2.88;;;25.90;99.90;;;;;;5034992;28;20226;-76
2023/12/06 00:44:32;;;;;;;14.98;2.47;;;25.90;99.90;;;;;;5034898;28;20277;-80
2023/12/06 00:47:03;;;;;;;12.43;2.58;;;25.90;99.90;;;;;;5034860;28;20550;-77
2023/12/06 00:49:33;;;;;;;12.13;2.17;;;25.90;99.90;;;;;;5034754;28;20244;-75
2023/12/06 00:52:04;;;;;;;11.10;2.10;;;25.80;99.90;;;;;;5035053;28;20186;-78
2023/12/06 00:54:37;;;;;;;15.13;2.25;;;25.70;99.90;;;;;;5034858;28;20277;-79
2023/12/06 00:57:08;;;;;;;14.05;2.17;;;25.70;99.90;;;;;;5034768;28;20194;-78
2023/12/06 00:59:38;;;;;;;14.40;2.97;;;25.70;99.90;;;;;;5034641;28;20672;-82
2023/12/06 01:02:09;;;;;;;17.00;2.42;;;25.80;99.90;;;;;;5034540;28;20204;-78
2023/12/06 01:04:40;;;;;;;12.50;2.33;;;25.70;99.90;;;;;;5034442;28;20201;-78
2023/12/06 01:07:11;;;;;;;13.10;2.60;;;25.70;99.90;;;;;;5034297;28;20208;-76
2023/12/06 01:09:44;;;;;;;13.40;2.60;;;25.80;99.90;;;;;;5034398;28;20217;-77
2023/12/06 01:12:14;;;;;;;11.07;2.30;;;25.80;99.90;;;;;;5034339;28;20220;-76
2023/12/06 01:14:45;;;;;;;15.88;2.85;;;25.90;99.90;;;;;;5034374;28;20200;-78
2023/12/06 01:17:16;;;;;;;10.38;1.77;;;26.00;99.90;;;;;;5034327;28;20192;-79
2023/12/06 01:19:47;;;;;;;12.88;2.80;;;25.90;99.90;;;;;;5034116;28;20277;-79
2023/12/06 01:22:18;;;;;;;17.20;2.17;;;25.90;99.90;;;;;;5034225;28;20277;-79
2023/12/06 01:24:51;;;;;;;13.48;2.38;;;26.00;99.90;;;;;;5034211;28;20642;-79
2023/12/06 01:27:21;;;;;;;15.90;2.47;;;26.00;99.90;;;;;;5034223;28;20658;-77
2023/12/06 01:29:52;;;;;;;15.75;2.50;;;26.00;99.90;;;;;;5033879;28;20234;-79
2023/12/06 01:32:23;;;;;;;13.65;2.65;;;25.90;99.90;;;;;;5033945;28;20186;-79
2023/12/06 01:34:54;;;;;;;17.10;3.10;;;25.90;99.90;;;;;;5033816;28;20194;-79
2023/12/06 01:37:24;;;;;;;15.75;2.63;;;25.90;99.90;;;;;;5034086;28;20190;-77
2023/12/06 01:39:57;;;;;;;11.60;3.38;;;25.90;99.90;;;;;;5033923;28;20186;-77
2023/12/06 01:42:28;;;;;;;14.70;2.90;;;25.90;99.90;;;;;;5033786;28;20187;-76
2023/12/06 01:44:59;;;;;;;8.15;1.77;;;25.80;99.90;;;;;;5033901;28;20557;-77
2023/12/06 01:47:31;;;;;;;13.75;2.30;;;25.70;99.90;;;;;;5033727;28;20281;-77
2023/12/06 01:50:04;;;;;;;17.65;2.30;;;25.60;99.90;;;;;;5033495;28;20229;-75
2023/12/06 01:52:35;;;;;;;15.63;2.30;;;25.70;99.90;;;;;;5033663;28;20202;-77
2023/12/06 01:55:09;;;;;;;15.82;2.92;;;25.80;99.90;;;;;;5033640;28;20266;-78
2023/12/06 01:57:40;;;;;;;11.98;2.47;;;25.80;99.90;;;;;;5033589;28;20198;-79
2023/12/06 02:00:12;;;;;;;14.13;2.45;;;25.80;99.90;;;;;;5033460;28;20534;-78
2023/12/06 02:02:43;;;;;;;10.90;2.53;;;25.90;99.90;;;;;;5033584;28;20194;-77
2023/12/06 02:05:14;;;;;;;16.75;2.42;;;25.70;99.90;;;;;;5033642;28;20260;-77
2023/12/06 02:07:45;;;;;;;14.95;2.35;;;25.70;99.90;;;;;;5033458;28;20213;-76
2023/12/06 02:10:18;;;;;;;12.48;2.17;;;25.70;99.90;;;;;;5033233;28;20220;-77
2023/12/06 02:12:48;;;;;;;15.15;2.40;;;25.70;99.90;;;;;;5033280;28;20190;-76
2023/12/06 02:15:21;;;;;;;12.57;2.05;;;25.70;99.90;;;;;;5033336;28;20213;-76
2023/12/06 02:17:52;;;;;;;15.05;2.35;;;25.70;99.90;;;;;;5033451;28;20647;-77
2023/12/06 02:20:23;;;;;;;11.05;2.33;;;25.90;99.90;;;;;;5033336;28;20186;-76
2023/12/06 02:22:56;;;;;;;12.57;2.47;;;26.10;99.90;;;;;;5033254;28;20230;-79
2023/12/06 02:25:28;;;;;;;13.85;2.30;;;26.10;99.90;;;;;;5033191;28;20190;-76
2023/12/06 02:28:00;;;;;;;11.82;2.65;;;26.10;99.90;;;;;;5033187;28;20278;-77
2023/12/06 02:30:30;;;;;;;18.55;2.53;;;26.00;99.90;;;;;;5033025;28;20237;-77
2023/12/06 02:33:01;;;;;;;14.27;2.60;;;26.10;99.90;;;;;;5032969;28;20265;-74
2023/12/06 02:35:37;;;;;;;11.88;2.28;;;26.10;99.90;;;;;;5033095;28;20237;-75
2023/12/06 02:38:09;;;;;;;13.60;2.17;;;26.10;99.90;;;;;;5033078;28;20186;-75
2023/12/06 02:40:43;;;;;;;17.52;2.20;;;26.00;99.90;;;;;;5035600;28;20194;-74
2023/12/06 02:43:14;;;;;;;14.60;2.45;;;25.80;99.90;;;;;;5037297;28;20207;-75
2023/12/06 02:45:45;;;;;;;12.77;2.58;;;25.70;99.90;;;;;;5037304;28;20625;-74
2023/12/06 02:48:18;;;;;;;13.60;2.45;;;25.80;99.90;;;;;;5037007;28;20194;-79
2023/12/06 02:50:48;;;;;;;12.15;2.35;;;25.90;99.90;;;;;;5037035;28;20584;-75
2023/12/06 02:53:19;;;;;;;12.88;2.20;;;25.90;99.90;;;;;;5037168;28;20277;-75
2023/12/06 02:55:52;;;;;;;13.25;2.25;;;25.70;99.90;;;;;;5037076;28;20207;-76
2023/12/06 02:58:23;;;;;;;15.18;2.67;;;25.70;99.90;;;;;;5036949;28;20187;-75
2023/12/06 03:00:54;;;;;;;16.25;2.35;;;25.70;99.90;;;;;;5036975;28;20281;-76
2023/12/06 03:03:25;;;;;;;13.27;2.33;;;25.80;99.90;;;;;;5036612;28;20527;-76
2023/12/06 03:05:55;;;;;;;9.70;1.98;;;25.80;99.90;;;;;;5036965;28;20190;-76
2023/12/06 03:08:26;;;;;;;11.40;2.35;;;25.70;99.90;;;;;;5037196;28;20194;-77
2023/12/06 03:10:59;;;;;;;14.18;2.42;;;25.70;99.90;;;;;;5036923;28;20216;-75
2023/12/06 03:13:30;;;;;;;13.52;2.50;;;25.70;99.90;;;;;;5036630;28;20676;-76
2023/12/06 03:16:01;;;;;;;17.30;2.75;;;25.60;99.90;;;;;;5036804;28;20281;-78
2023/12/06 03:18:32;;;;;;;13.90;2.10;;;25.30;99.90;;;;;;5036761;28;20226;-80
2023/12/06 03:21:02;;;;;;;14.38;2.28;;;25.30;99.90;;;;;;5037019;28;20196;-78
2023/12/06 03:23:36;;;;;;;15.25;2.70;;;25.40;99.90;;;;;;5036470;28;20230;-77
2023/12/06 03:26:10;;;;;;;14.07;2.50;;;25.50;99.90;;;;;;5036613;28;20196;-77
2023/12/06 03:28:41;;;;;;;16.88;2.35;;;25.50;99.90;;;;;;5036404;28;20201;-78
2023/12/06 03:31:12;;;;;;;11.95;2.03;;;25.60;99.90;;;;;;5036435;28;20234;-78
2023/12/06 03:33:43;;;;;;;12.40;2.20;;;25.60;99.90;;;;;;5036321;28;20198;-81
2023/12/06 03:36:15;;;;;;;12.13;2.40;;;25.70;99.90;;;;;;5036549;28;20273;-78
2023/12/06 03:38:46;;;;;;;17.23;2.45;;;25.70;99.90;;;;;;5036639;28;20277;-81
2023/12/06 03:41:19;;;;;;;12.05;2.30;;;25.60;99.90;;;;;;5036326;28;20598;-78
2023/12/06 03:43:50;;;;;;;11.80;2.10;;;25.40;99.90;;;;;;5036493;28;20202;-81
2023/12/06 03:46:21;;;;;;;13.82;2.10;;;25.40;99.90;;;;;;5035931;28;20252;-80
2023/12/06 03:48:52;;;;;;;10.15;2.10;;;25.30;99.90;;;;;;5036034;28;20629;-76
2023/12/06 03:51:23;;;;;;;15.48;2.88;;;25.20;99.90;;;;;;5035151;28;20218;-77
2023/12/06 03:53:54;;;;;;;9.55;2.10;;;25.20;99.90;;;;;;5035947;28;20190;-75
2023/12/06 03:56:27;;;;;;;13.55;2.40;;;25.10;99.90;;;;;;5035890;28;20205;-76
2023/12/06 03:58:58;;;;;;;11.07;2.38;;;24.90;99.90;;;;;;5035828;28;20277;-78
2023/12/06 04:01:29;;;;;;;10.52;2.38;;;24.80;99.90;;;;;;5035784;28;20200;-76
2023/12/06 04:03:59;;;;;;;13.15;2.40;;;24.70;99.90;;;;;;5035817;28;20241;-77
2023/12/06 04:06:30;;;;;;;11.80;2.53;;;24.70;99.90;;;;;;5035671;28;20198;-79
2023/12/06 04:09:01;;;;;;;10.13;2.60;;;24.70;99.90;;;;;;5035722;28;20669;-77
2023/12/06 04:11:34;;;;;;;9.75;2.20;;;24.70;99.90;;;;;;5035554;28;20324;-77
2023/12/06 04:14:05;;;;;;;11.23;1.92;;;24.70;99.90;;;;;;5035431;28;20252;-78
2023/12/06 04:16:38;;;;;;;12.30;2.17;;;24.70;99.90;;;;;;5035465;28;20240;-78
2023/12/06 04:19:08;;;;;;;11.35;2.63;;;24.80;99.90;;;;;;5035434;28;20276;-78
2023/12/06 04:21:39;;;;;;;14.98;2.40;;;24.80;99.90;;;;;;5035458;28;20597;-77
2023/12/06 04:24:10;;;;;;;12.50;2.50;;;24.80;99.90;;;;;;5035246;28;20230;-79
2023/12/06 04:26:43;;;;;;;13.13;2.38;;;24.80;99.90;;;;;;5035321;28;20205;-78
2023/12/06 04:29:14;;;;;;;11.98;2.33;;;24.90;99.90;;;;;;5035027;28;20186;-77
2023/12/06 04:31:44;;;;;;;12.95;2.30;;;24.90;99.90;;;;;;5035168;28;20309;-77
2023/12/06 04:34:15;;;;;;;9.88;2.13;;;24.90;99.90;;;;;;5035263;28;20206;-78
2023/12/06 04:36:46;;;;;;;10.98;2.03;;;24.70;99.90;;;;;;5035148;28;20233;-76
2023/12/06 04:39:17;;;;;;;14.20;2.35;;;24.60;99.90;;;;;;5035076;28;20191;-78
2023/12/06 04:41:50;;;;;;;13.05;2.20;;;24.60;99.90;;;;;;5034983;28;20628;-78
2023/12/06 04:44:20;;;;;;;10.63;2.25;;;24.60;99.90;;;;;;5034773;28;20187;-76
2023/12/06 04:46:51;;;;;;;12.95;2.35;;;24.60;99.90;;;;;;5034908;28;20352;-78
2023/12/06 04:49:22;;;;;;;11.43;2.53;;;24.70;99.90;;;;;;5034791;28;20538;-77
2023/12/06 04:51:52;;;;;;;14.93;2.67;;;24.70;99.90;;;;;;5034817;28;20592;-75
2023/12/06 04:54:24;;;;;;;10.45;2.50;;;24.60;99.90;;;;;;5034746;28;20205;-76
2023/12/06 04:56:57;;;;;;;14.82;2.50;;;24.60;99.90;;;;;;5034674;28;20193;-78
2023/12/06 04:59:29;;;;;;;15.80;2.42;;;24.50;99.90;;;;;;5034695;28;20637;-78
2023/12/06 05:01:59;;;;;;;11.32;2.10;;;24.60;99.90;;;;;;5034629;28;20533;-77
2023/12/06 05:04:30;;;;;;;12.68;2.30;;;24.70;99.90;;;;;;5033554;28;20195;-77
2023/12/06 05:07:01;;;;;;;15.02;2.90;;;24.80;99.90;;;;;;5034506;28;20643;-77
2023/12/06 05:09:32;;;;;;;19.95;2.58;;;24.70;99.90;;;;;;5034536;28;20297;-75
2023/12/06 05:12:04;;;;;;;12.15;2.20;;;24.80;99.90;;;;;;5033399;28;20613;-77
2023/12/06 05:14:36;;;;;;;12.25;2.30;;;24.80;99.90;;;;;;5034631;28;20226;-79
2023/12/06 05:17:07;;;;;;;11.43;2.33;;;24.70;99.90;;;;;;5034113;28;20567;-79
2023/12/06 05:19:38;;;;;;;7.80;2.00;;;24.70;99.90;;;;;;5033861;28;20201;-78
2023/12/06 05:22:09;;;;;;;16.27;2.25;;;24.60;99.90;;;;;;5033626;28;20200;-78
2023/12/06 05:24:44;;;;;;;13.18;2.25;;;24.60;99.90;;;;;;5033634;28;20280;-78
2023/12/06 05:27:18;;;;;;;9.82;2.20;;;24.60;99.90;;;;;;5033385;28;20284;-77
2023/12/06 05:29:48;;;;;;;10.77;2.15;;;24.70;99.90;;;;;;5033465;28;20226;-78
2023/12/06 05:32:19;;;;;;;14.20;2.22;;;24.70;99.90;;;;;;5033464;28;20561;-77
2023/12/06 05:34:50;;;;;;;15.30;2.67;;;24.80;99.90;;;;;;5033523;28;20564;-77
2023/12/06 05:37:23;;;;;;;10.43;2.17;;;24.90;99.90;;;;;;5033868;28;20187;-77
2023/12/06 05:39:53;;;;;;;9.63;2.00;;;24.80;99.90;;;;;;5033297;28;20205;-78
2023/12/06 05:42:26;;;;;;;12.50;2.30;;;24.80;99.90;;;;;;5033383;28;20190;-79
2023/12/06 05:44:57;;;;;;;13.90;2.42;;;24.80;99.90;;;;;;5033836;28;20240;-78
2023/12/06 05:47:28;;;;;;;10.40;2.03;;;24.80;99.90;;;;;;5033824;28;20191;-78
2023/12/06 05:49:59;;;;;;;9.63;1.80;;;24.90;99.90;;;;;;5034311;28;20285;-80
2023/12/06 05:52:29;;;;;;;11.77;2.42;;;25.00;99.90;;;;;;5033764;28;20714;-78
2023/12/06 05:55:01;;;;;;;12.68;2.25;;;25.00;99.90;;;;;;5033967;28;20217;-75
2023/12/06 05:57:34;;;;;;;12.40;2.13;;;25.00;99.90;;;;;;5033978;28;20217;-78
2023/12/06 06:00:09;;;;;;;12.68;2.25;;;25.00;99.90;;;;;;5033606;28;20560;-78
2023/12/06 06:02:40;;;;;;;12.38;2.20;;;25.00;99.90;;;;;;5033648;28;20208;-79
2023/12/06 06:05:12;;;;;;;12.43;2.33;;;24.80;99.90;;;;;;5033667;28;20194;-76
2023/12/06 06:07:43;;;;;;;11.18;2.28;;;24.70;99.90;;;;;;5033847;28;20218;-77
2023/12/06 06:10:14;;;;;;;11.98;2.20;;;24.70;99.90;;;;;;5033160;28;20260;-79
2023/12/06 06:12:46;;;;;;;11.20;2.33;;;24.50;99.90;;;;;;5033489;28;20273;-77
2023/12/06 06:15:17;;;;;;;14.13;2.50;;;24.60;99.90;;;;;;5033058;28;20190;-79
2023/12/06 06:17:48;;;;;;;10.73;2.38;;;24.60;99.90;;;;;;5033438;28;20196;-79
2023/12/06 06:20:19;;;;;;;11.05;1.80;;;24.60;99.90;;;;;;5033339;28;20205;-79
2023/12/06 06:22:50;;;;;;;7.32;2.03;;;24.60;99.90;;;;;;5033116;28;20734;-79
2023/12/06 06:25:25;;;;;;;13.63;2.47;;;24.60;99.90;;;;;;5033194;28;20185;-80
2023/12/06 06:27:57;;;;;;;11.65;2.13;;;24.70;99.90;;;;;;5033385;28;20704;-78
2023/12/06 06:30:28;;;;;;;15.65;2.47;;;24.70;99.90;;;;;;5033006;28;20233;-78
2023/12/06 06:32:59;;;;;;;10.27;2.03;;;24.60;99.90;;;;;;5033258;28;20198;-78
2023/12/06 06:35:30;;;;;;;14.60;2.45;;;24.50;99.90;;;;;;5033229;28;20192;-78
2023/12/06 06:38:01;;;;;;;16.85;2.70;;;24.50;99.90;;;;;;5033218;28;20186;-77
2023/12/06 06:40:32;;;;;;;14.10;2.70;;;24.50;99.90;;;;;;5032928;28;20234;-75
2023/12/06 06:43:05;;;;;;;9.88;2.28;;;24.30;99.90;;;;;;5033174;28;20190;-78
2023/12/06 06:45:37;;;;;;;14.68;2.63;;;24.20;99.90;;;;;;5033148;28;20638;-79
2023/12/06 06:48:08;;;;;;;12.88;2.58;;;24.20;99.90;;;;;;5033126;28;20223;-76
2023/12/06 06:50:39;;;;;;;12.93;2.95;;;24.10;99.90;;;;;;5032931;28;20228;-78
2023/12/06 06:53:13;;;;;;;8.88;2.15;;;24.00;99.90;;;;;;5032931;28;20503;-78
2023/12/06 06:55:44;;;;;;;11.20;2.10;;;24.00;99.90;;;;;;5033055;28;20197;-78
2023/12/06 06:58:17;;;;;;;14.20;2.42;;;24.00;99.90;;;;;;5033007;28;20186;-75
2023/12/06 07:00:48;;;;;;;11.98;2.40;;;23.90;99.90;;;;;;5032905;28;20634;-75
2023/12/06 07:03:19;;;;;;;13.32;2.33;;;23.90;99.90;;;;;;5032899;28;20635;-77
2023/12/06 07:05:51;;;;;;;14.90;2.40;;;23.70;99.90;;;;;;5032956;28;20630;-75
2023/12/06 07:08:22;;;;;;;12.20;2.63;;;23.60;99.90;;;;;;5032702;28;20639;-76
2023/12/06 07:10:55;;;;;;;13.60;2.65;;;23.50;99.90;;;;;;5032846;28;20218;-76
2023/12/06 07:13:28;;;;;;;13.40;2.25;;;23.30;99.90;;;;;;5032913;28;20230;-76
2023/12/06 07:15:59;;;;;;;12.50;2.20;;;23.20;99.90;;;;;;5032898;28;20191;-77
2023/12/06 07:18:31;;;;;;;18.73;2.38;;;23.20;99.90;;;;;;5032973;28;20190;-77
2023/12/06 07:21:03;;;;;;;12.15;2.08;;;23.10;99.90;;;;;;5032870;28;20194;-77
2023/12/06 07:23:34;;;;;;;12.90;2.60;;;23.10;99.90;;;;;;5032465;28;20234;-78
2023/12/06 07:26:05;;;;;;;20.88;2.83;;;23.10;99.90;;;;;;5032724;28;20199;-78
2023/12/06 07:28:39;;;;;;;13.95;2.20;;;23.10;99.90;;;;;;5031048;28;20195;-79
2023/12/06 07:31:10;;;;;;;11.52;2.03;;;23.10;99.90;;;;;;5020647;28;20211;-78
2023/12/06 07:33:41;;;;;;;12.68;2.30;;;23.10;99.90;;;;;;5026745;28;20187;-79
2023/12/06 07:36:13;;;;;;;15.77;2.47;;;23.20;99.90;;;;;;5017593;28;20560;-78
2023/12/06 07:38:43;;;;;;;13.30;2.38;;;23.20;99.90;;;;;;5015235;28;20270;-77
2023/12/06 07:41:14;;;;;;;13.38;2.50;;;23.20;99.90;;;;;;5015930;28;20652;-78
2023/12/06 07:43:47;;;;;;;8.77;2.30;;;23.10;99.90;;;;;;5016205;28;20226;-77
2023/12/06 07:46:18;;;;;;;13.05;2.28;;;23.10;99.90;;;;;;5015436;28;20194;-78
2023/12/06 07:48:48;;;;;;;14.98;3.00;;;23.00;99.90;;;;;;5016295;28;20195;-78
2023/12/06 07:51:19;;;;;;;10.43;2.30;;;23.00;99.90;;;;;;5019456;28;20297;-78
2023/12/06 07:53:51;;;;;;;11.75;2.30;;;23.00;99.90;;;;;;5019785;28;20201;-77
2023/12/06 07:56:22;;;;;;;11.82;2.17;;;23.00;99.90;;;;;;5025345;28;20198;-76
2023/12/06 07:58:57;;;;;;;13.07;2.80;;;22.90;99.90;;;;;;5031851;28;20547;-78
2023/12/06 08:01:31;;;;;;;11.32;2.28;;;22.90;99.90;;;;;;5016966;28;20190;-77
2023/12/06 08:04:02;;;;;;;14.85;2.83;;;22.90;99.90;;;;;;5028114;28;20205;-78
2023/12/06 08:06:33;;;;;;;14.77;2.60;;;22.80;99.90;;;;;;5019576;28;20203;-77
2023/12/06 08:09:10;;;;;;;13.50;2.42;;;22.80;99.90;;;;;;5033142;28;20198;-77
2023/12/06 08:11:42;;;;;;;13.07;2.00;;;22.80;99.90;;;;;;5024483;28;20218;-79
2023/12/06 08:14:14;;;;;;;12.65;2.28;;;22.70;99.90;;;;;;5027758;28;20199;-78
2023/12/06 08:16:47;;;;;;;11.60;2.50;;;22.70;99.90;;;;;;5021855;28;20572;-76
2023/12/06 08:19:18;;;;;;;15.95;2.40;;;22.70;99.90;;;;;;5035078;28;20654;-76
2023/12/06 08:21:49;;;;;;;13.13;2.20;;;22.60;99.90;;;;;;5026672;28;20241;-78
2023/12/06 08:24:20;;;;;;;13.82;2.42;;;22.60;99.90;;;;;;5019650;28;20235;-76
2023/12/06 08:26:50;;;;;;;12.93;2.58;;;22.50;99.90;;;;;;5021540;28;20198;-78
2023/12/06 08:29:23;;;;;;;15.93;2.65;;;22.50;99.90;;;;;;5028526;28;20237;-78
2023/12/06 08:31:54;;;;;;;11.63;2.30;;;22.50;99.90;;;;;;5021999;28;20222;-77
2023/12/06 08:34:26;;;;;;;13.30;2.15;;;22.40;99.90;;;;;;5029737;28;20199;-75
2023/12/06 08:36:57;;;;;;;10.45;2.05;;;22.30;99.90;;;;;;5026652;28;20571;-77
2023/12/06 08:39:27;;;;;;;9.80;2.05;;;22.30;99.90;;;;;;5026794;28;20209;-77
2023/12/06 08:41:58;;;;;;;13.63;3.20;;;22.20;99.90;;;;;;5027300;28;20213;-76
2023/12/06 08:44:31;;;;;;;12.48;3.65;;;22.20;99.90;;;;;;5015894;28;20205;-76
2023/12/06 08:47:02;;;;;;;12.82;2.40;;;22.20;99.90;;;;;;5021573;28;20190;-75
2023/12/06 08:49:33;;;;;;;7.55;1.85;;;22.20;99.90;;;;;;5028651;28;20203;-76
2023/12/06 08:52:04;;;;;;;11.80;2.13;;;22.10;99.90;;;;;;5025447;28;20218;-76
2023/12/06 08:54:34;;;;;;;10.63;2.22;;;22.10;99.90;;;;;;5022264;28;20207;-77
2023/12/06 08:57:06;;;;;;;15.70;2.55;;;22.10;99.90;;;;;;5025449;28;20195;-75
2023/12/06 08:59:38;;;;;;;13.05;2.60;;;22.10;99.90;;;;;;5027792;28;20556;-75
2023/12/06 09:02:09;;;;;;;10.95;1.88;;;22.00;99.90;;;;;;5029143;28;20567;-75
2023/12/06 09:04:40;;;;;;;10.38;1.80;;;22.00;99.90;;;;;;5025103;28;20202;-76
2023/12/06 09:07:11;;;;;;;11.68;2.00;;;21.90;99.90;;;;;;5018547;28;20199;-78
2023/12/06 09:09:41;;;;;;;12.27;2.05;;;21.90;99.90;;;;;;5025398;28;20671;-77
2023/12/06 09:12:12;;;;;;;12.10;2.15;;;21.80;99.90;;;;;;5027267;28;20220;-75
2023/12/06 09:14:45;;;;;;;12.02;1.90;;;21.80;99.90;;;;;;5030085;28;20198;-76
2023/12/06 09:17:16;;;;;;;12.25;1.77;;;21.80;99.90;;;;;;5025555;28;20213;-77
2023/12/06 09:19:47;;;;;;;9.38;2.10;;;21.70;99.90;;;;;;5026112;28;20195;-75
2023/12/06 09:22:18;;;;;;;14.63;2.22;;;21.80;99.90;;;;;;5027221;28;20290;-75
2023/12/06 09:24:49;;;;;;;10.77;1.60;;;21.70;99.90;;;;;;5024778;28;20245;-78
2023/12/06 09:27:20;;;;;;;12.70;2.15;;;21.70;99.90;;;;;;5026195;28;20566;-74
2023/12/06 09:29:52;;;;;;;13.38;2.40;;;21.70;99.90;;;;;;5025345;28;20222;-75
2023/12/06 09:32:23;;;;;;;12.73;2.30;;;21.70;99.90;;;;;;5024794;28;20215;-77
2023/12/06 09:34:54;;;;;;;10.38;1.90;;;21.70;99.90;;;;;;5020724;28;20657;-74
2023/12/06 09:37:25;;;;;;;9.07;2.47;;;21.70;99.90;;;;;;5019916;28;20686;-74
2023/12/06 09:39:58;;;;;;;9.10;2.15;;;21.60;99.90;;;;;;5033569;28;20202;-75
2023/12/06 09:42:30;;;;;;;12.95;2.28;;;21.60;99.90;;;;;;5031586;28;20655;-76
2023/12/06 09:45:03;;;;;;;11.60;1.80;;;21.60;99.90;;;;;;5030023;28;20202;-77
2023/12/06 09:47:35;;;;;;;11.30;2.15;;;21.60;99.90;;;;;;5029430;28;20195;-74
2023/12/06 09:50:06;;;;;;;9.93;2.05;;;21.60;99.90;;;;;;5015985;28;20199;-78
2023/12/06 09:52:36;;;;;;;14.10;1.92;;;21.60;99.90;;;;;;5023167;28;20223;-78
2023/12/06 09:55:09;;;;;;;12.75;2.08;;;21.50;99.90;;;;;;5028974;28;20227;-78
2023/12/06 09:57:41;;;;;;;8.43;1.90;;;21.60;99.90;;;;;;5021041;28;20198;-78
2023/12/06 10:00:16;;;;;;;9.70;2.13;;;21.50;99.90;;;;;;5016525;28;20203;-78
2023/12/06 10:02:57;;;;;;;14.32;2.17;;;21.50;99.90;;;;;;5016463;28;20207;-76
2023/12/06 10:05:28;;;;;;;6.85;2.00;;;21.50;99.90;;;;;;5019425;28;20677;-78
2023/12/06 10:07:59;;;;;;;9.40;2.13;;;21.50;99.90;;;;;;5021944;28;20210;-75
2023/12/06 10:10:30;;;;;;;11.48;2.08;;;21.50;99.90;;;;;;5028500;28;20190;-74
2023/12/06 10:13:01;;;;;;;12.77;2.45;;;21.50;99.90;;;;;;5024017;28;20317;-75
2023/12/06 10:15:39;;;;;;;8.35;1.90;;;21.50;99.90;;;;;;5021650;28;20280;-75
2023/12/06 10:18:12;;;;;;;9.32;1.98;;;21.40;99.90;;;;;;5017494;28;20678;-74
2023/12/06 10:20:43;;;;;;;7.05;1.60;;;21.40;99.90;;;;;;5023471;28;20194;-75
2023/12/06 10:23:15;;;;;;;10.23;2.13;;;21.40;99.90;;;;;;5018418;28;20238;-76
2023/12/06 10:25:48;;;;;;;12.55;2.45;;;21.40;99.90;;;;;;5022502;28;20546;-75
2023/12/06 10:28:20;;;;;;;10.60;2.00;;;21.40;99.90;;;;;;5026877;28;20209;-75
2023/12/06 10:31:03;;;;;;;10.63;2.28;;;21.40;99.90;;;;;;5026736;28;20670;-75
2023/12/06 10:33:34;;;;;;;11.25;2.03;;;21.40;99.90;;;;;;5029532;28;20217;-74
2023/12/06 10:36:06;;;;;;;12.00;2.15;;;21.40;99.90;;;;;;5020424;28;20223;-75
2023/12/06 10:38:38;;;;;;;11.80;2.30;;;21.40;99.90;;;;;;5023646;28;20244;-74
2023/12/06 10:41:12;;;;;;;12.35;2.35;;;21.40;99.90;;;;;;5029084;28;20210;-75
2023/12/06 10:43:45;;;;;;;12.70;2.40;;;21.40;99.90;;;;;;5030873;28;20976;-74
2023/12/06 10:46:20;;;;;;;12.20;2.22;;;21.30;99.90;;;;;;5026535;28;20195;-77
2023/12/06 10:48:53;;;;;;;11.30;2.15;;;21.30;99.90;;;;;;5018738;28;20202;-74
2023/12/06 10:51:26;;;;;;;8.60;1.77;;;21.30;99.90;;;;;;5023835;28;20206;-75
2023/12/06 10:53:59;;;;;;;12.43;2.20;;;21.30;99.90;;;;;;5022135;28;20199;-78
2023/12/06 10:56:30;;;;;;;11.68;2.42;;;21.30;99.90;;;;;;5022948;28;20200;-75
2023/12/06 10:59:03;;;;;;;11.45;1.92;;;21.30;99.90;;;;;;5023962;28;20202;-75
2023/12/06 11:01:37;;;;;;;9.73;1.95;;;21.30;99.90;;;;;;5029083;28;20655;-76
2023/12/06 11:04:10;;;;;;;12.00;2.10;;;21.30;99.90;;;;;;5026531;28;20214;-77
2023/12/06 11:06:57;;;;;;;10.85;2.25;;;21.30;99.90;;;;;;5022594;28;20277;-76
2023/12/06 11:09:38;;;;;;;11.38;2.30;;;21.30;99.90;;;;;;5026133;28;20663;-78
2023/12/06 11:12:22;;;;;;;8.30;2.10;;;21.30;99.90;;;;;;5029352;28;20229;-78
2023/12/06 11:15:19;;;;;;;12.05;2.15;;;21.30;99.90;;;;;;5028351;28;20212;-77
2023/12/06 11:18:04;;;;;;;11.25;2.42;;;21.30;99.90;;;;;;5034254;28;20197;-78
2023/12/06 11:20:35;;;;;;;11.13;2.40;;;21.30;99.90;;;;;;5028983;28;20205;-79
2023/12/06 11:23:06;;;;;;;11.00;2.30;;;21.30;99.90;;;;;;5035867;28;20333;-75
2023/12/06 11:25:42;;;;;;;10.35;2.25;;;21.20;99.90;;;;;;5036116;28;20208;-75
2023/12/06 11:28:16;;;;;;;10.05;2.28;;;21.20;99.90;;;;;;5034641;28;20296;-76
2023/12/06 11:30:58;;;;;;;13.43;2.92;;;21.20;99.90;;;;;;5022603;28;20613;-76
2023/12/06 11:33:31;;;;;;;13.52;2.30;;;21.20;99.90;;;;;;5025542;28;20557;-74
2023/12/06 11:36:01;;;;;;;12.82;2.40;;;21.20;99.90;;;;;;5031142;28;20284;-74
2023/12/06 11:38:39;;;;;;;8.52;2.10;;;21.10;99.90;;;;;;5025375;28;20278;-77
2023/12/06 11:41:15;;;;;;;11.80;2.40;;;21.10;99.90;;;;;;5033836;28;20248;-76
2023/12/06 11:43:51;;;;;;;10.93;2.38;;;21.20;99.90;;;;;;5030105;28;20216;-76
2023/12/06 11:46:24;;;;;;;9.60;2.10;;;21.10;99.90;;;;;;5025954;28;20282;-78
2023/12/06 11:48:58;;;;;;;9.98;2.20;;;21.20;99.90;;;;;;5027135;28;20221;-76
2023/12/06 11:51:28;;;;;;;15.35;2.75;;;21.20;99.90;;;;;;5033679;28;20194;-78
2023/12/06 11:53:59;;;;;;;14.80;2.50;;;21.20;99.90;;;;;;5022759;28;20218;-78
2023/12/06 11:56:30;;;;;;;13.07;2.50;;;21.20;99.90;;;;;;5036078;28;20619;-79
2023/12/06 11:59:02;;;;;;;11.40;2.35;;;21.10;99.90;;;;;;5017823;28;20195;-75
2023/12/06 12:01:33;;;;;;;13.68;2.40;;;21.10;99.90;;;;;;5016035;28;20202;-75
2023/12/06 12:04:06;;;;;;;10.30;2.30;;;21.10;99.90;;;;;;5015194;28;20202;-75
2023/12/06 12:06:37;;;;;;;10.75;2.75;;;21.20;99.90;;;;;;5016082;28;20198;-75
2023/12/06 12:09:10;;;;;;;14.23;2.67;;;21.10;99.90;;;;;;5016102;28;20565;-76
2023/12/06 12:11:45;;;;;;;10.98;2.28;;;21.20;99.90;;;;;;5015631;28;20218;-75
2023/12/06 12:14:16;;;;;;;10.57;2.13;;;21.10;99.90;;;;;;5026599;28;20220;-74
2023/12/06 12:16:47;;;;;;;13.75;2.45;;;21.10;99.90;;;;;;5035578;28;20200;-74
2023/12/06 12:19:21;;;;;;;9.65;2.40;;;21.10;99.90;;;;;;5035491;28;20190;-76
2023/12/06 12:21:52;;;;;;;11.50;2.30;;;21.10;99.90;;;;;;5031060;28;20195;-74
2023/12/06 12:24:26;;;;;;;12.65;2.72;;;21.10;99.90;;;;;;5022105;28;20694;-75
2023/12/06 12:26:57;;;;;;;14.10;2.55;;;21.10;99.90;;;;;;5026943;28;20196;-75
2023/12/06 12:29:28;;;;;;;9.10;1.92;;;21.10;99.90;;;;;;5027429;28;20608;-74
2023/12/06 12:31:59;;;;;;;10.68;2.38;;;21.00;99.90;;;;;;5033510;28;20186;-76
2023/12/06 12:34:32;;;;;;;14.95;2.28;;;21.00;99.90;;;;;;5029452;28;20194;-76
2023/12/06 12:37:04;;;;;;;13.10;2.40;;;21.00;99.90;;;;;;5020476;28;20202;-75
2023/12/06 12:39:35;;;;;;;11.25;2.30;;;21.00;99.90;;;;;;5035163;28;20196;-75
2023/12/06 12:42:08;;;;;;;9.15;2.20;;;21.00;99.90;;;;;;5030827;28;20187;-75
2023/12/06 12:44:39;;;;;;;13.88;2.85;;;21.00;99.90;;;;;;5015359;28;20286;-76
2023/12/06 12:47:10;;;;;;;11.43;2.50;;;20.90;99.90;;;;;;5026365;28;20556;-79
2023/12/06 12:49:45;;;;;;;8.48;1.90;;;20.90;99.90;;;;;;5025899;28;20651;-77
2023/12/06 12:52:16;;;;;;;10.65;2.40;;;20.90;99.90;;;;;;5020364;28;20278;-78
2023/12/06 12:54:48;;;;;;;12.50;2.50;;;20.90;99.90;;;;;;5030958;28;20198;-76
2023/12/06 12:57:19;;;;;;;11.57;2.33;;;20.90;99.90;;;;;;5031172;28;20191;-78
2023/12/06 12:59:49;;;;;;;13.40;2.47;;;20.90;99.90;;;;;;5023615;28;20193;-79
2023/12/06 13:02:20;;;;;;;10.52;2.33;;;20.90;99.90;;;;;;5023650;28;20197;-78